createdAt,value
2023-03-03T00:01:26.237Z,20.80
2023-03-03T00:03:55.422Z,16.60
2023-03-03T00:06:24.934Z,20.00
2023-03-03T00:08:53.602Z,17.60
2023-03-03T00:11:21.919Z,16.80
2023-03-03T00:13:52.928Z,17.80
2023-03-03T00:16:28.620Z,16.90
2023-03-03T00:18:57.441Z,15.00
2023-03-03T00:21:42.592Z,16.70
2023-03-03T00:24:35.600Z,16.20
2023-03-03T00:27:27.171Z,16.70
2023-03-03T00:29:58.467Z,14.10
2023-03-03T00:32:53.498Z,14.40
2023-03-03T00:35:39.523Z,13.20
2023-03-03T00:38:14.970Z,13.70
2023-03-03T00:40:43.276Z,13.00
2023-03-03T00:43:28.181Z,13.00
2023-03-03T00:45:59.724Z,13.10
2023-03-03T00:48:41.400Z,15.60
2023-03-03T00:51:19.390Z,12.30
2023-03-03T00:53:47.315Z,14.30
2023-03-03T00:56:15.905Z,13.60
2023-03-03T00:58:48.158Z,13.90
2023-03-03T01:01:18.819Z,12.50
2023-03-03T01:03:49.813Z,12.40
2023-03-03T01:06:17.829Z,13.40
2023-03-03T01:08:45.798Z,12.70
2023-03-03T01:11:20.256Z,11.70
2023-03-03T01:13:51.696Z,11.90
2023-03-03T01:16:20.363Z,12.50
2023-03-03T01:18:48.364Z,12.10
2023-03-03T01:21:16.356Z,11.40
2023-03-03T01:23:44.575Z,11.70
2023-03-03T01:26:12.590Z,11.70
2023-03-03T01:28:40.611Z,12.00
2023-03-03T01:31:09.301Z,11.20
2023-03-03T01:33:37.498Z,11.00
2023-03-03T01:36:06.614Z,10.10
2023-03-03T01:38:39.088Z,10.80
2023-03-03T01:41:07.293Z,10.50
2023-03-03T01:43:35.295Z,10.80
2023-03-03T01:46:03.354Z,10.20
2023-03-03T01:48:42.743Z,9.90
2023-03-03T01:51:31.221Z,8.50
2023-03-03T01:54:02.811Z,10.30
2023-03-03T01:56:31.298Z,10.10
2023-03-03T01:59:05.931Z,9.40
2023-03-03T02:01:34.653Z,11.10
2023-03-03T02:04:04.264Z,10.60
2023-03-03T02:06:38.827Z,8.90
2023-03-03T02:09:21.772Z,11.50
2023-03-03T02:11:52.622Z,10.30
2023-03-03T02:14:20.715Z,9.30
2023-03-03T02:16:49.003Z,11.00
2023-03-03T02:19:38.643Z,10.40
2023-03-03T02:22:07.550Z,11.80
2023-03-03T02:24:51.476Z,10.20
2023-03-03T02:27:21.060Z,11.30
2023-03-03T02:29:49.368Z,11.20
2023-03-03T02:32:17.475Z,11.90
2023-03-03T02:34:49.242Z,11.50
2023-03-03T02:37:18.549Z,11.70
2023-03-03T02:39:46.676Z,11.10
2023-03-03T02:42:23.906Z,11.60
2023-03-03T02:44:55.241Z,11.50
2023-03-03T02:47:23.287Z,11.70
2023-03-03T02:49:51.475Z,11.30
2023-03-03T02:52:19.917Z,12.20
2023-03-03T02:54:48.653Z,10.50
2023-03-03T02:57:16.642Z,11.20
2023-03-03T02:59:44.750Z,11.00
2023-03-03T03:02:14.773Z,10.00
2023-03-03T03:04:43.778Z,10.80
2023-03-03T03:07:14.098Z,11.80
2023-03-03T03:09:43.093Z,11.20
2023-03-03T03:12:11.525Z,11.40
2023-03-03T03:14:40.703Z,11.70
2023-03-03T03:17:09.007Z,12.20
2023-03-03T03:19:36.993Z,10.50
2023-03-03T03:22:05.533Z,10.50
2023-03-03T03:24:35.050Z,11.70
2023-03-03T03:27:05.614Z,9.90
2023-03-03T03:29:33.723Z,10.90
2023-03-03T03:32:01.875Z,9.90
2023-03-03T03:34:29.963Z,11.20
2023-03-03T03:36:58.702Z,11.40
2023-03-03T03:39:27.931Z,11.70
2023-03-03T03:41:56.782Z,11.90
2023-03-03T03:44:25.387Z,10.30
2023-03-03T03:46:53.579Z,11.60
2023-03-03T03:49:21.824Z,9.50
2023-03-03T03:51:51.470Z,10.50
2023-03-03T03:54:21.372Z,11.60
2023-03-03T03:56:50.159Z,9.90
2023-03-03T03:59:18.355Z,9.10
2023-03-03T04:01:48.225Z,11.70
2023-03-03T04:04:17.781Z,11.80
2023-03-03T04:06:46.115Z,10.70
2023-03-03T04:09:15.568Z,10.60
2023-03-03T04:11:43.935Z,10.50
2023-03-03T04:14:12.779Z,10.90
2023-03-03T04:16:40.865Z,9.90
2023-03-03T04:19:10.121Z,11.20
2023-03-03T04:21:39.592Z,10.30
2023-03-03T04:24:09.041Z,10.20
2023-03-03T04:26:38.832Z,11.50
2023-03-03T04:29:07.188Z,11.30
2023-03-03T04:31:35.411Z,11.30
2023-03-03T04:34:04.336Z,12.70
2023-03-03T04:36:32.688Z,11.10
2023-03-03T04:39:00.945Z,10.90
2023-03-03T04:41:29.439Z,11.70
2023-03-03T04:43:58.433Z,12.10
2023-03-03T04:46:29.075Z,10.80
2023-03-03T04:48:57.799Z,12.10
2023-03-03T04:51:27.138Z,10.40
2023-03-03T04:53:55.266Z,11.20
2023-03-03T04:56:23.663Z,11.40
2023-03-03T04:58:52.157Z,11.10
2023-03-03T05:01:21.596Z,11.40
2023-03-03T05:03:50.071Z,10.60
2023-03-03T05:06:19.070Z,11.40
2023-03-03T05:08:47.256Z,12.10
2023-03-03T05:11:16.328Z,10.50
2023-03-03T05:13:44.749Z,11.40
2023-03-03T05:16:13.078Z,10.90
2023-03-03T05:18:42.141Z,12.70
2023-03-03T05:21:12.589Z,12.90
2023-03-03T05:23:40.808Z,12.00
2023-03-03T05:26:09.557Z,11.20
2023-03-03T05:28:38.668Z,12.20
2023-03-03T05:31:06.671Z,11.70
2023-03-03T05:33:34.920Z,10.10
2023-03-03T05:36:02.939Z,12.60
2023-03-03T05:38:31.040Z,11.00
2023-03-03T05:41:00.185Z,10.80
2023-03-03T05:43:29.315Z,9.40
2023-03-03T05:45:58.071Z,9.90
2023-03-03T05:48:26.166Z,11.50
2023-03-03T05:50:59.597Z,10.10
2023-03-03T05:53:29.323Z,13.10
2023-03-03T05:55:58.625Z,10.10
2023-03-03T05:58:27.761Z,11.20
2023-03-03T06:00:56.767Z,10.90
2023-03-03T06:03:24.813Z,11.60
2023-03-03T06:05:52.961Z,11.60
2023-03-03T06:08:21.208Z,11.30
2023-03-03T06:10:57.098Z,9.40
2023-03-03T06:13:26.240Z,10.70
2023-03-03T06:15:54.178Z,14.20
2023-03-03T06:18:22.535Z,12.80
2023-03-03T06:20:56.108Z,10.50
2023-03-03T06:23:24.332Z,13.60
2023-03-03T06:25:53.394Z,10.90
2023-03-03T06:28:21.801Z,12.10
2023-03-03T06:30:56.501Z,11.10
2023-03-03T06:33:26.345Z,13.10
2023-03-03T06:35:57.847Z,11.90
2023-03-03T06:38:25.926Z,10.50
2023-03-03T06:40:56.953Z,12.40
2023-03-03T06:43:25.257Z,11.60
2023-03-03T06:45:53.381Z,9.70
2023-03-03T06:48:21.719Z,12.10
2023-03-03T06:50:49.781Z,12.80
2023-03-03T06:53:19.510Z,12.70
2023-03-03T06:55:49.915Z,11.90
2023-03-03T06:58:21.816Z,12.10
2023-03-03T07:00:59.530Z,11.00
2023-03-03T07:03:39.191Z,10.70
2023-03-03T07:06:26.030Z,11.40
2023-03-03T07:08:57.640Z,12.30
2023-03-03T07:11:26.014Z,10.90
2023-03-03T07:13:56.409Z,12.10
2023-03-03T07:16:32.803Z,11.90
2023-03-03T07:19:05.593Z,12.20
2023-03-03T07:21:36.827Z,12.30
2023-03-03T07:24:27.825Z,14.10
2023-03-03T07:29:42.353Z,13.30
2023-03-03T07:32:45.212Z,18.10
2023-03-03T07:35:36.343Z,13.70
2023-03-03T07:38:32.797Z,11.90
2023-03-03T07:41:05.028Z,14.60
2023-03-03T07:43:48.604Z,14.30
2023-03-03T07:46:36.886Z,14.30
2023-03-03T07:49:34.741Z,14.20
2023-03-03T07:52:29.240Z,15.50
2023-03-03T07:55:00.727Z,12.60
2023-03-03T07:57:39.889Z,12.30
2023-03-03T08:00:32.588Z,14.90
2023-03-03T08:03:14.482Z,14.90
2023-03-03T08:05:45.151Z,16.00
2023-03-03T08:08:44.091Z,15.90
2023-03-03T08:11:12.470Z,17.00
2023-03-03T08:13:46.083Z,15.70
2023-03-03T08:16:15.602Z,15.00
2023-03-03T08:18:50.118Z,15.20
2023-03-03T08:21:22.209Z,15.20
2023-03-03T08:23:53.331Z,24.00
2023-03-03T08:26:23.317Z,16.50
2023-03-03T08:28:53.449Z,15.70
2023-03-03T08:31:38.145Z,15.10
2023-03-03T08:34:09.462Z,16.60
2023-03-03T08:36:37.537Z,17.30
2023-03-03T08:39:06.072Z,16.40
2023-03-03T08:41:34.725Z,16.60
2023-03-03T08:44:03.530Z,15.50
2023-03-03T08:46:34.059Z,15.10
2023-03-03T08:49:05.329Z,16.30
2023-03-03T08:51:37.176Z,14.90
2023-03-03T08:54:07.671Z,17.40
2023-03-03T08:56:35.928Z,18.20
2023-03-03T08:59:04.823Z,14.40
2023-03-03T09:01:35.506Z,10.70
2023-03-03T09:04:06.666Z,15.40
2023-03-03T09:06:34.961Z,6.70
2023-03-03T09:09:05.278Z,6.80
2023-03-03T09:11:34.227Z,6.10
2023-03-03T09:14:12.330Z,6.20
2023-03-03T09:17:18.350Z,6.50
2023-03-03T09:22:24.137Z,10.50
2023-03-03T09:24:57.208Z,5.40
2023-03-03T09:27:35.427Z,4.80
2023-03-03T09:30:45.067Z,7.60
2023-03-03T09:33:30.296Z,7.80
2023-03-03T09:36:17.178Z,6.80
2023-03-03T09:38:46.475Z,5.90
2023-03-03T09:41:44.983Z,5.00
2023-03-03T09:44:33.107Z,5.20
2023-03-03T09:47:22.363Z,5.80
2023-03-03T09:50:02.553Z,7.00
2023-03-03T09:52:41.618Z,5.80
2023-03-03T09:55:18.846Z,6.50
2023-03-03T09:58:04.605Z,6.80
2023-03-03T10:00:59.614Z,5.50
2023-03-03T10:03:41.106Z,4.60
2023-03-03T10:06:40.022Z,4.20
2023-03-03T10:09:35.385Z,4.80
2023-03-03T10:12:29.574Z,4.60
2023-03-03T10:15:30.157Z,5.30
2023-03-03T10:18:20.350Z,8.70
2023-03-03T10:21:04.455Z,8.30
2023-03-03T10:23:41.900Z,5.40
2023-03-03T10:26:44.820Z,5.80
2023-03-03T10:29:52.596Z,6.70
2023-03-03T10:32:52.496Z,4.70
2023-03-03T10:35:37.417Z,5.50
2023-03-03T10:38:40.778Z,6.50
2023-03-03T10:41:35.442Z,5.50
2023-03-03T10:44:18.334Z,5.50
2023-03-03T10:46:59.593Z,6.10
2023-03-03T10:49:41.555Z,5.90
2023-03-03T10:52:45.532Z,5.00
2023-03-03T10:55:31.881Z,5.00
2023-03-03T10:58:37.756Z,3.90
2023-03-03T11:01:39.204Z,4.20
2023-03-03T11:04:51.403Z,10.00
2023-03-03T11:07:33.794Z,7.10
2023-03-03T11:10:18.995Z,6.60
2023-03-03T11:13:25.264Z,6.60
2023-03-03T11:16:11.485Z,6.00
2023-03-03T11:21:29.895Z,5.50
2023-03-03T11:24:24.108Z,5.60
2023-03-03T11:27:22.328Z,9.00
2023-03-03T11:30:10.227Z,5.40
2023-03-03T11:32:49.504Z,6.30
2023-03-03T11:35:26.612Z,7.70
2023-03-03T11:38:09.586Z,6.40
2023-03-03T11:40:56.829Z,6.70
2023-03-03T11:43:37.410Z,5.40
2023-03-03T11:46:12.049Z,6.00
2023-03-03T11:49:05.187Z,10.50
2023-03-03T11:52:03.045Z,7.00
2023-03-03T11:54:55.611Z,5.80
2023-03-03T11:57:37.118Z,5.40
2023-03-03T12:00:28.463Z,6.10
2023-03-03T12:03:12.212Z,7.20
2023-03-03T12:05:52.932Z,6.10
2023-03-03T12:08:32.837Z,6.60
2023-03-03T12:11:25.874Z,6.10
2023-03-03T12:14:28.210Z,8.00
2023-03-03T12:17:41.177Z,7.10
2023-03-03T12:20:30.145Z,6.50
2023-03-03T12:23:08.215Z,9.30
2023-03-03T12:25:51.722Z,5.50
2023-03-03T12:28:24.348Z,6.20
2023-03-03T12:31:11.057Z,9.70
2023-03-03T12:33:59.071Z,9.00
2023-03-03T12:36:34.525Z,7.00
2023-03-03T12:39:25.320Z,8.70
2023-03-03T12:42:20.366Z,8.50
2023-03-03T12:45:07.982Z,5.20
2023-03-03T12:47:41.291Z,5.10
2023-03-03T12:50:10.880Z,5.40
2023-03-03T12:53:29.813Z,5.90
2023-03-03T12:56:09.582Z,6.40
2023-03-03T12:58:59.471Z,6.10
2023-03-03T13:01:46.757Z,5.30
2023-03-03T13:04:40.366Z,6.60
2023-03-03T13:07:21.837Z,6.20
2023-03-03T13:10:09.077Z,10.20
2023-03-03T13:12:48.305Z,10.50
2023-03-03T13:15:33.209Z,6.50
2023-03-03T13:18:21.624Z,6.40
2023-03-03T13:21:05.420Z,6.00
2023-03-03T13:24:14.853Z,6.30
2023-03-03T13:26:50.257Z,6.60
2023-03-03T13:29:34.172Z,7.10
2023-03-03T13:32:12.809Z,6.50
2023-03-03T13:34:55.472Z,6.70
2023-03-03T13:37:32.279Z,6.40
2023-03-03T13:40:12.489Z,7.30
2023-03-03T13:42:55.971Z,7.50
2023-03-03T13:45:46.100Z,6.70
2023-03-03T13:48:49.963Z,6.30
2023-03-03T13:51:20.788Z,6.70
2023-03-03T13:54:13.007Z,5.90
2023-03-03T13:56:52.603Z,7.30
2023-03-03T13:59:31.131Z,6.60
2023-03-03T14:02:36.664Z,6.40
2023-03-03T14:05:39.802Z,6.80
2023-03-03T14:08:31.651Z,6.30
2023-03-03T14:11:22.233Z,6.30
2023-03-03T14:14:00.261Z,10.00
2023-03-03T14:16:46.052Z,7.10
2023-03-03T14:19:31.807Z,7.60
2023-03-03T14:22:25.547Z,6.80
2023-03-03T14:25:07.899Z,8.40
2023-03-03T14:28:01.428Z,8.50
2023-03-03T14:30:37.757Z,7.40
2023-03-03T14:33:09.376Z,8.20
2023-03-03T14:35:51.801Z,8.10
2023-03-03T14:38:24.683Z,13.50
2023-03-03T14:41:24.348Z,9.00
2023-03-03T14:44:20.809Z,11.80
2023-03-03T14:47:20.339Z,11.70
2023-03-03T14:49:49.391Z,8.40
2023-03-03T14:52:17.676Z,7.80
2023-03-03T14:54:55.529Z,8.90
2023-03-03T14:57:46.829Z,9.20
2023-03-03T15:00:15.114Z,10.00
2023-03-03T15:03:00.288Z,9.50
2023-03-03T15:05:33.312Z,8.90
2023-03-03T15:08:05.479Z,8.30
2023-03-03T15:10:44.596Z,8.40
2023-03-03T15:13:19.750Z,8.90
2023-03-03T15:16:18.216Z,7.40
2023-03-03T15:19:00.482Z,7.80
2023-03-03T15:21:38.360Z,8.10
2023-03-03T15:24:24.751Z,9.00
2023-03-03T15:27:02.923Z,7.50
2023-03-03T15:30:05.209Z,8.20
2023-03-03T15:33:02.262Z,8.20
2023-03-03T15:35:31.176Z,8.60
2023-03-03T15:38:29.723Z,10.30
2023-03-03T15:41:06.724Z,10.10
2023-03-03T15:43:45.249Z,10.10
2023-03-03T15:46:35.376Z,10.10
2023-03-03T15:49:46.592Z,10.50
2023-03-03T15:52:35.220Z,9.70
2023-03-03T15:55:11.856Z,9.40
2023-03-03T15:57:52.062Z,9.50
2023-03-03T16:00:51.179Z,10.70
2023-03-03T16:03:46.898Z,13.70
2023-03-03T16:06:33.450Z,10.60
2023-03-03T16:09:10.680Z,10.80
2023-03-03T16:12:16.321Z,10.00
2023-03-03T16:14:57.833Z,9.20
2023-03-03T16:17:42.145Z,8.50
2023-03-03T16:20:22.860Z,9.70
2023-03-03T16:22:58.666Z,11.40
2023-03-03T16:25:40.920Z,9.60
2023-03-03T16:28:43.274Z,10.20
2023-03-03T16:31:19.800Z,10.90
2023-03-03T16:34:12.439Z,11.30
2023-03-03T16:37:03.026Z,12.30
2023-03-03T16:39:46.380Z,10.70
2023-03-03T16:42:16.338Z,11.60
2023-03-03T16:45:19.065Z,12.70
2023-03-03T16:47:58.334Z,10.80
2023-03-03T16:50:50.261Z,10.70
2023-03-03T16:53:38.917Z,11.90
2023-03-03T16:56:37.866Z,13.40
2023-03-03T16:59:28.658Z,13.20
2023-03-03T17:02:22.015Z,12.50
2023-03-03T17:05:00.718Z,12.30
2023-03-03T17:07:49.615Z,12.70
2023-03-03T17:11:02.247Z,11.80
2023-03-03T17:14:06.444Z,12.20
2023-03-03T17:17:03.380Z,13.40
2023-03-03T17:20:02.861Z,13.20
2023-03-03T17:23:06.928Z,11.60
2023-03-03T17:25:54.061Z,10.50
2023-03-03T17:28:34.225Z,14.10
2023-03-03T17:31:24.763Z,13.40
2023-03-03T17:34:03.780Z,12.40
2023-03-03T17:37:16.859Z,13.70
2023-03-03T17:40:25.141Z,12.30
2023-03-03T17:43:05.355Z,11.60
2023-03-03T17:45:41.353Z,11.80
2023-03-03T17:48:42.640Z,11.20
2023-03-03T17:51:58.420Z,13.80
2023-03-03T17:54:42.449Z,17.20
2023-03-03T17:57:29.042Z,16.50
2023-03-03T18:00:32.054Z,17.30
2023-03-03T18:03:03.170Z,19.50
2023-03-03T18:05:40.577Z,19.70
2023-03-03T18:08:33.584Z,19.90
2023-03-03T18:11:10.948Z,20.30
2023-03-03T18:14:02.890Z,19.00
2023-03-03T18:16:50.823Z,19.80
2023-03-03T18:19:46.661Z,19.10
2023-03-03T18:22:25.592Z,21.90
2023-03-03T18:25:01.487Z,22.80
2023-03-03T18:27:32.746Z,20.70
2023-03-03T18:30:08.055Z,23.10
2023-03-03T18:32:56.501Z,20.00
2023-03-03T18:35:27.765Z,22.40
2023-03-03T18:37:57.626Z,19.10
2023-03-03T18:40:34.601Z,22.90
2023-03-03T18:43:42.383Z,27.30
2023-03-03T18:46:32.390Z,28.80
2023-03-03T18:49:12.890Z,31.00
2023-03-03T18:51:42.850Z,27.90
2023-03-03T18:54:17.739Z,34.20
2023-03-03T18:56:48.440Z,31.30
2023-03-03T18:59:41.779Z,30.60
2023-03-03T19:02:13.452Z,33.90
2023-03-03T19:05:09.093Z,28.10
2023-03-03T19:07:49.052Z,32.80
2023-03-03T19:10:23.272Z,28.60
2023-03-03T19:12:55.457Z,29.60
2023-03-03T19:15:30.312Z,27.40
2023-03-03T19:18:01.947Z,27.60
2023-03-03T19:20:58.014Z,24.30
2023-03-03T19:23:26.206Z,28.20
2023-03-03T19:26:25.893Z,25.00
2023-03-03T19:29:03.226Z,26.80
2023-03-03T19:32:04.225Z,25.80
2023-03-03T19:34:55.875Z,26.10
2023-03-03T19:37:27.279Z,25.20
2023-03-03T19:40:03.499Z,27.80
2023-03-03T19:42:46.509Z,23.70
2023-03-03T19:45:36.399Z,27.20
2023-03-03T19:48:16.692Z,24.60
2023-03-03T19:51:00.031Z,27.10
2023-03-03T19:53:54.760Z,27.70
2023-03-03T19:56:45.884Z,25.70
2023-03-03T19:59:32.936Z,22.90
2023-03-03T20:02:29.364Z,26.60
2023-03-03T20:05:16.658Z,27.90
2023-03-03T20:07:56.035Z,23.70
2023-03-03T20:11:01.286Z,29.70
2023-03-03T20:14:03.128Z,27.60
2023-03-03T20:16:41.982Z,23.60
2023-03-03T20:19:30.123Z,25.10
2023-03-03T20:22:08.502Z,25.60
2023-03-03T20:24:46.337Z,25.60
2023-03-03T20:27:19.641Z,24.70
2023-03-03T20:30:08.347Z,22.20
2023-03-03T20:32:43.967Z,24.10
2023-03-03T20:35:31.253Z,21.80
2023-03-03T20:38:07.366Z,23.40
2023-03-03T20:40:48.739Z,21.80
2023-03-03T20:43:51.573Z,20.80
2023-03-03T20:46:44.569Z,23.10
2023-03-03T20:49:34.637Z,20.90
2023-03-03T20:52:21.305Z,21.50
2023-03-03T20:55:10.745Z,19.40
2023-03-03T20:58:11.024Z,23.70
2023-03-03T21:00:53.583Z,18.30
2023-03-03T21:03:42.140Z,22.30
2023-03-03T21:06:19.699Z,22.00
2023-03-03T21:08:49.935Z,21.80
2023-03-03T21:11:21.206Z,24.20
2023-03-03T21:13:53.649Z,21.60
2023-03-03T21:16:21.644Z,23.20
2023-03-03T21:19:03.280Z,25.70
2023-03-03T21:21:34.470Z,23.60
2023-03-03T21:24:02.851Z,19.10
2023-03-03T21:27:23.554Z,20.80
2023-03-03T21:30:20.744Z,24.10
2023-03-03T21:32:51.109Z,25.40
2023-03-03T21:35:22.097Z,20.40
2023-03-03T21:37:56.117Z,23.10
2023-03-03T21:40:28.636Z,25.30
2023-03-03T21:43:01.150Z,22.10
2023-03-03T21:45:30.513Z,25.80
2023-03-03T21:48:01.390Z,24.20
2023-03-03T21:50:33.034Z,21.20
2023-03-03T21:53:01.373Z,24.70
2023-03-03T21:55:29.493Z,25.70
2023-03-03T21:57:57.674Z,21.00
2023-03-03T22:00:25.925Z,24.90
2023-03-03T22:02:58.091Z,25.40
2023-03-03T22:05:26.074Z,22.70
2023-03-03T22:07:54.230Z,22.80
2023-03-03T22:10:23.665Z,24.90
2023-03-03T22:12:51.709Z,25.00
2023-03-03T22:15:19.852Z,23.90
2023-03-03T22:17:47.912Z,24.20
2023-03-03T22:20:18.213Z,26.80
2023-03-03T22:22:47.518Z,22.80
2023-03-03T22:25:15.519Z,25.10
2023-03-03T22:27:43.974Z,25.30
2023-03-03T22:30:12.717Z,22.40
2023-03-03T22:32:40.764Z,22.10
2023-03-03T22:35:09.601Z,24.80
2023-03-03T22:37:37.663Z,25.80
2023-03-03T22:40:06.212Z,23.70
2023-03-03T22:42:34.200Z,24.00
2023-03-03T22:45:02.356Z,23.00
2023-03-03T22:47:30.395Z,23.60
2023-03-03T22:49:59.465Z,24.50
2023-03-03T22:52:27.956Z,24.00
2023-03-03T22:54:58.042Z,22.70
2023-03-03T22:57:30.128Z,21.70
2023-03-03T23:00:00.040Z,21.70
2023-03-03T23:02:29.401Z,24.30
2023-03-03T23:05:01.822Z,23.20
2023-03-03T23:07:30.028Z,23.80
2023-03-03T23:09:57.965Z,26.30
2023-03-03T23:12:26.523Z,25.30
2023-03-03T23:14:54.604Z,22.50
2023-03-03T23:17:24.451Z,24.60
2023-03-03T23:19:52.980Z,25.00
2023-03-03T23:22:21.089Z,23.30
2023-03-03T23:24:49.652Z,25.00
2023-03-03T23:27:17.801Z,23.70
2023-03-03T23:29:45.939Z,23.90
2023-03-03T23:32:14.195Z,20.60
2023-03-03T23:34:42.382Z,20.00
2023-03-03T23:37:11.330Z,19.60
2023-03-03T23:39:40.813Z,20.30
2023-03-03T23:42:08.824Z,21.00
2023-03-03T23:44:40.354Z,18.70
2023-03-03T23:47:08.929Z,18.70
2023-03-03T23:49:38.835Z,18.20
2023-03-03T23:52:09.148Z,21.10
2023-03-03T23:54:37.535Z,18.50
2023-03-03T23:57:08.093Z,19.50
2023-03-03T23:59:38.808Z,17.70
